Strona główna
METAR-TAF:

METAR-TAF

Lotnisko :

Port lotniczy Aarhus

Aarhus, Dania

Szerokość geograficzna: 56-18N, Długość geograficzna: 010-37E, wysokość: 23 m

Aktualna obserwacja pogody

Raport powstał 41 minut temu, godzina 04:20 UTC
Wiatr 15 kt od zachodnio-północny zachód
Temperatura 7°C
Wilgotność 87%
Ciśnienie 1020 hPa
Widzialność 10 km lub więcej

METAR: EKAH 090420Z AUTO 29015KT 9999NDV BKN072/// 07/05 Q1020

czas: 07:01 (05:01 UTC)


TAF: brakujący

Obserwacja i prognoza pogody dla ponad 4000 lotnisk (raport METAR i TAF).

Dostępne stacje oznaczono żółtymi i czerwonymi punktami na mapie.

Najedź kursorem aby zobaczyć nazwę stacji.

Kliknij aby zobaczyć obserwacje i prognozy pogody.

Aby zmienić mapę: kliknij na zielony przycisk z czarnym krzyżykiem, aby powiększyć; na zielony przycisk z myślnikiem, aby pomniejszyć; na zielone strzałki, aby przejść do map sąsiednich.


METAR-TAF: